Syringa, Idaho
Current Conditions -  °F | °C
As of 8:15 PM on Friday 24 Oct 2014 (Local Time) from KGIC Reporting Station
Overcast Overcast  
Wind Chill: 47°   Ceiling: 300
Heat Index: 47°   Visibility: 3mi
Dew Point: 45°   Wind: 0mph
Humidity: 94%   Direction: NA
Pressure: 30.04"   Gusts: NA
Location:  46.2989°N, 115.619°W
Report Text: KGIC 250315Z AUTO 00000KT 3SM OVC003 08/07 A3004 RMK AO1 T00810072
Loading
Personal Weather Stations






























Interactive Weather Map
Tropical Storm Tracking
New forecast layout! Learn more

10-Day Weather Forecast

Advertisements
Track Severe Weather on mobile